Time;durP1;ratioP1;P1;durP2;ratioP2;P2;SDS_P1;SDS_P2;PMS_P1;PMS_P2;Temp;Humidity;BMP_temperature;BMP_pressure;BME280_temperature;BME280_humidity;BME280_pressure;Samples;Min_cycle;Max_cycle;Signal;HPM_P1;HPM_P2
2021/08/18 00:00:37;;;;;;;11.93;7.93;;;;;;;;;;5029343;28;20439;-70
2021/08/18 00:03:04;;;;;;;13.93;8.63;;;;;;;;;;5029712;28;20440;-71
2021/08/18 00:05:30;;;;;;;14.40;8.80;;;;;;;;;;5029465;28;20472;-71
2021/08/18 00:07:56;;;;;;;12.13;7.73;;;;;;;;;;5029251;28;20891;-72
2021/08/18 00:10:25;;;;;;;13.20;8.50;;;;;;;;;;5030163;28;20420;-71
2021/08/18 00:12:51;;;;;;;11.53;8.10;;;;;;;;;;5032523;28;20430;-72
2021/08/18 00:15:17;;;;;;;12.97;9.23;;;;;;;;;;5031224;28;20469;-71
2021/08/18 00:17:44;;;;;;;10.67;8.73;;;;;;;;;;5032784;28;20460;-71
2021/08/18 00:20:10;;;;;;;12.73;8.20;;;;;;;;;;5032795;28;20440;-70
2021/08/18 00:22:36;;;;;;;13.17;9.30;;;;;;;;;;5043697;28;20421;-71
2021/08/18 00:25:03;;;;;;;17.40;9.63;;;;;;;;;;5045856;28;20436;-71
2021/08/18 00:27:29;;;;;;;13.33;9.10;;;;;;;;;;5052970;28;20423;-71
2021/08/18 00:29:55;;;;;;;15.60;9.20;;;;;;;;;;5038451;28;20870;-71
2021/08/18 00:32:21;;;;;;;13.77;9.50;;;;;;;;;;5032659;28;20418;-71
2021/08/18 00:34:47;;;;;;;14.40;9.80;;;;;;;;;;5032756;28;20451;-71
2021/08/18 00:37:13;;;;;;;14.10;8.60;;;;;;;;;;5032309;28;20460;-70
2021/08/18 00:39:39;;;;;;;12.97;9.60;;;;;;;;;;5032947;28;20405;-72
2021/08/18 00:42:05;;;;;;;13.30;9.27;;;;;;;;;;5032716;28;20894;-71
2021/08/18 00:44:33;;;;;;;13.17;9.87;;;;;;;;;;5032561;28;20503;-71
2021/08/18 00:46:59;;;;;;;14.20;9.70;;;;;;;;;;5032153;28;20428;-72
2021/08/18 00:49:27;;;;;;;12.63;9.13;;;;;;;;;;5032757;28;20499;-71
2021/08/18 00:51:54;;;;;;;12.03;9.10;;;;;;;;;;5032468;28;20770;-71
2021/08/18 00:54:20;;;;;;;14.80;9.13;;;;;;;;;;5032637;28;20405;-70
2021/08/18 00:56:47;;;;;;;12.90;9.10;;;;;;;;;;5034920;28;20421;-71
2021/08/18 00:59:13;;;;;;;15.60;9.40;;;;;;;;;;5036448;28;20856;-71
2021/08/18 01:01:40;;;;;;;15.10;9.63;;;;;;;;;;5036103;28;20459;-71
2021/08/18 01:04:06;;;;;;;12.27;9.23;;;;;;;;;;5034997;28;20800;-71
2021/08/18 01:06:34;;;;;;;11.83;8.87;;;;;;;;;;5041062;28;20293;-71
2021/08/18 01:09:00;;;;;;;13.33;9.80;;;;;;;;;;5036301;28;20808;-71
2021/08/18 01:11:26;;;;;;;13.37;9.00;;;;;;;;;;5036172;28;20491;-71
2021/08/18 01:13:52;;;;;;;11.60;9.00;;;;;;;;;;5035864;28;20715;-70
2021/08/18 01:16:19;;;;;;;12.67;10.00;;;;;;;;;;5035104;28;20437;-70
2021/08/18 01:18:45;;;;;;;16.17;9.30;;;;;;;;;;5035460;28;20496;-72
2021/08/18 01:21:11;;;;;;;12.93;9.23;;;;;;;;;;5035768;28;20451;-72
2021/08/18 01:23:37;;;;;;;13.77;9.93;;;;;;;;;;5035611;28;20426;-70
2021/08/18 01:26:04;;;;;;;11.83;8.77;;;;;;;;;;5035671;28;20433;-72
2021/08/18 01:28:30;;;;;;;11.33;9.30;;;;;;;;;;5035392;28;20420;-71
2021/08/18 01:30:56;;;;;;;12.00;9.33;;;;;;;;;;5035577;28;20428;-72
2021/08/18 01:33:22;;;;;;;13.17;9.07;;;;;;;;;;5035700;28;20436;-70
2021/08/18 01:35:50;;;;;;;11.63;9.27;;;;;;;;;;5035157;28;20456;-70
2021/08/18 01:38:17;;;;;;;11.63;8.90;;;;;;;;;;5034414;28;20506;-70
2021/08/18 01:40:44;;;;;;;13.33;9.90;;;;;;;;;;5035381;28;20435;-71
2021/08/18 01:43:10;;;;;;;12.50;9.07;;;;;;;;;;5032660;28;20412;-72
2021/08/18 01:45:38;;;;;;;12.63;9.40;;;;;;;;;;5038282;28;20548;-71
2021/08/18 01:48:32;;;;;;;13.57;9.63;;;;;;;;;;5034986;28;20449;-72
2021/08/18 01:50:59;;;;;;;12.20;9.97;;;;;;;;;;5022151;28;20433;-71
2021/08/18 01:53:29;;;;;;;11.43;9.90;;;;;;;;;;5035284;28;20938;-70
2021/08/18 01:55:56;;;;;;;16.13;10.10;;;;;;;;;;5033349;28;20786;-71
2021/08/18 01:58:23;;;;;;;14.47;9.50;;;;;;;;;;5033075;28;20460;-71
2021/08/18 02:00:49;;;;;;;13.47;9.77;;;;;;;;;;5034845;28;20435;-71
2021/08/18 02:03:15;;;;;;;12.27;9.80;;;;;;;;;;5035178;28;20471;-70
2021/08/18 02:05:41;;;;;;;13.50;9.63;;;;;;;;;;5031051;28;20459;-69
2021/08/18 02:08:07;;;;;;;12.07;9.23;;;;;;;;;;5030844;28;20421;-70
2021/08/18 02:10:33;;;;;;;14.80;9.70;;;;;;;;;;5035054;28;20432;-71
2021/08/18 02:12:59;;;;;;;12.57;9.70;;;;;;;;;;5034591;28;20574;-70
2021/08/18 02:15:27;;;;;;;17.67;9.87;;;;;;;;;;5034871;28;20491;-71
2021/08/18 02:17:53;;;;;;;12.57;9.33;;;;;;;;;;5028256;28;20465;-71
2021/08/18 02:20:21;;;;;;;15.93;10.10;;;;;;;;;;5051281;28;20435;-71
2021/08/18 02:22:47;;;;;;;15.07;10.17;;;;;;;;;;5029297;28;20804;-72
2021/08/18 02:25:14;;;;;;;13.90;9.07;;;;;;;;;;5031878;28;20448;-71
2021/08/18 02:27:40;;;;;;;14.40;10.40;;;;;;;;;;5028172;28;20431;-71
2021/08/18 02:30:07;;;;;;;13.87;10.20;;;;;;;;;;5034693;28;20482;-71
2021/08/18 02:32:33;;;;;;;12.30;9.63;;;;;;;;;;5034429;28;20421;-72
2021/08/18 02:34:59;;;;;;;15.27;9.50;;;;;;;;;;5034058;28;20456;-71
2021/08/18 02:37:25;;;;;;;13.93;10.40;;;;;;;;;;5030810;28;21033;-71
2021/08/18 02:39:51;;;;;;;15.20;10.53;;;;;;;;;;5040450;28;20433;-71
2021/08/18 02:42:17;;;;;;;18.07;10.83;;;;;;;;;;5032648;28;20821;-69
2021/08/18 02:44:43;;;;;;;14.67;10.47;;;;;;;;;;5034300;28;20483;-70
2021/08/18 02:47:09;;;;;;;16.30;10.60;;;;;;;;;;5033833;28;20420;-72
2021/08/18 02:49:35;;;;;;;17.30;11.33;;;;;;;;;;5034036;28;20904;-71
2021/08/18 02:52:01;;;;;;;16.77;10.47;;;;;;;;;;5034116;28;20405;-71
2021/08/18 02:54:27;;;;;;;13.10;10.30;;;;;;;;;;5028652;28;20957;-71
2021/08/18 02:56:54;;;;;;;15.00;9.87;;;;;;;;;;5033569;28;20408;-70
2021/08/18 02:59:20;;;;;;;13.10;10.40;;;;;;;;;;5033714;28;20557;-70
2021/08/18 03:01:46;;;;;;;12.67;10.70;;;;;;;;;;5033581;28;20790;-69
2021/08/18 03:04:12;;;;;;;12.53;8.70;;;;;;;;;;5034000;28;20422;-70
2021/08/18 03:06:38;;;;;;;14.00;10.87;;;;;;;;;;5031641;28;20461;-71
2021/08/18 03:09:04;;;;;;;14.90;10.17;;;;;;;;;;5039886;28;20767;-71
2021/08/18 03:11:31;;;;;;;13.70;10.27;;;;;;;;;;5033551;28;20456;-71
2021/08/18 03:13:57;;;;;;;15.33;9.30;;;;;;;;;;5033607;28;20590;-71
2021/08/18 03:16:23;;;;;;;15.80;9.40;;;;;;;;;;5023817;28;20441;-71
2021/08/18 03:18:49;;;;;;;16.67;11.00;;;;;;;;;;5044375;28;20472;-72
2021/08/18 03:21:16;;;;;;;14.27;11.17;;;;;;;;;;5034916;28;20433;-70
2021/08/18 03:23:42;;;;;;;14.73;11.00;;;;;;;;;;5033142;28;20822;-70
2021/08/18 03:26:08;;;;;;;15.57;11.13;;;;;;;;;;5033282;28;20544;-71
2021/08/18 03:28:34;;;;;;;17.30;11.27;;;;;;;;;;5033116;28;20746;-72
2021/08/18 03:31:00;;;;;;;17.97;10.97;;;;;;;;;;5029578;28;20433;-71
2021/08/18 03:33:26;;;;;;;14.77;11.67;;;;;;;;;;5033380;28;20459;-71
2021/08/18 03:35:52;;;;;;;15.30;11.83;;;;;;;;;;5032704;28;20792;-71
2021/08/18 03:38:18;;;;;;;15.45;11.73;;;;;;;;;;5032579;28;20480;-71
2021/08/18 03:40:46;;;;;;;16.63;11.63;;;;;;;;;;5033462;28;20532;-71
2021/08/18 03:43:12;;;;;;;16.90;10.87;;;;;;;;;;5041713;28;20640;-71
2021/08/18 03:45:38;;;;;;;15.48;11.70;;;;;;;;;;5033687;28;20447;-71
2021/08/18 03:48:04;;;;;;;23.20;11.93;;;;;;;;;;5032491;28;20177;-70
2021/08/18 03:50:30;;;;;;;16.10;11.43;;;;;;;;;;5032915;28;20190;-71
2021/08/18 03:52:56;;;;;;;17.57;12.17;;;;;;;;;;5032377;28;20428;-71
2021/08/18 03:55:22;;;;;;;16.20;11.20;;;;;;;;;;5028862;28;20490;-70
2021/08/18 03:57:48;;;;;;;16.40;11.50;;;;;;;;;;5032136;28;20491;-70
2021/08/18 04:00:15;;;;;;;16.57;12.13;;;;;;;;;;5032509;28;20420;-70
2021/08/18 04:02:41;;;;;;;16.53;10.97;;;;;;;;;;5032837;28;20790;-71
2021/08/18 04:05:08;;;;;;;14.80;11.40;;;;;;;;;;5042798;28;20457;-69
2021/08/18 04:07:34;;;;;;;17.00;12.10;;;;;;;;;;5032744;28;20473;-70
2021/08/18 04:10:00;;;;;;;22.07;12.53;;;;;;;;;;5032317;28;20181;-70
2021/08/18 04:12:26;;;;;;;20.40;11.87;;;;;;;;;;5033140;28;20423;-71
2021/08/18 04:14:52;;;;;;;17.73;10.93;;;;;;;;;;5032372;28;20463;-70
2021/08/18 04:17:18;;;;;;;16.77;12.03;;;;;;;;;;5032280;28;20793;-71
2021/08/18 04:19:44;;;;;;;17.73;12.50;;;;;;;;;;5033060;28;20412;-71
2021/08/18 04:22:10;;;;;;;17.50;11.37;;;;;;;;;;5033112;28;20519;-70
2021/08/18 04:24:36;;;;;;;15.47;11.00;;;;;;;;;;5033439;28;20448;-71
2021/08/18 04:27:02;;;;;;;15.60;11.07;;;;;;;;;;5031773;28;20439;-71
2021/08/18 04:29:28;;;;;;;15.87;11.20;;;;;;;;;;5032338;28;20424;-70
2021/08/18 04:31:54;;;;;;;19.63;12.20;;;;;;;;;;5036866;28;20451;-71
2021/08/18 04:34:20;;;;;;;18.13;12.57;;;;;;;;;;5036704;28;20415;-70
2021/08/18 04:36:46;;;;;;;16.03;11.17;;;;;;;;;;5032970;28;20785;-70
2021/08/18 04:39:12;;;;;;;20.17;12.43;;;;;;;;;;5036526;28;20467;-70
2021/08/18 04:41:38;;;;;;;16.53;11.73;;;;;;;;;;5036693;28;20456;-70
2021/08/18 04:44:04;;;;;;;18.77;12.53;;;;;;;;;;5036252;28;20959;-71
2021/08/18 04:46:30;;;;;;;15.33;12.17;;;;;;;;;;5036742;28;20433;-72
2021/08/18 04:48:56;;;;;;;17.17;12.33;;;;;;;;;;5035976;28;20515;-71
2021/08/18 04:51:22;;;;;;;16.23;11.97;;;;;;;;;;5036273;28;20423;-72
2021/08/18 04:53:49;;;;;;;20.10;12.90;;;;;;;;;;5036044;28;20427;-72
2021/08/18 04:56:15;;;;;;;17.07;11.90;;;;;;;;;;5033763;28;20995;-70
2021/08/18 04:58:41;;;;;;;17.23;12.43;;;;;;;;;;5029684;28;20467;-71
2021/08/18 05:01:07;;;;;;;16.30;11.83;;;;;;;;;;5027243;28;20425;-72
2021/08/18 05:03:33;;;;;;;15.73;11.90;;;;;;;;;;5037408;28;20917;-72
2021/08/18 05:05:59;;;;;;;15.73;11.67;;;;;;;;;;5035974;28;20463;-72
2021/08/18 05:08:25;;;;;;;20.10;13.17;;;;;;;;;;5034041;28;20439;-72
2021/08/18 05:10:51;;;;;;;14.50;11.07;;;;;;;;;;5036119;28;20439;-72
2021/08/18 05:13:17;;;;;;;18.37;11.47;;;;;;;;;;5036001;28;20416;-72
2021/08/18 05:15:43;;;;;;;12.87;10.50;;;;;;;;;;5035783;28;20448;-72
2021/08/18 05:18:09;;;;;;;16.20;11.03;;;;;;;;;;5035408;28;20464;-72
2021/08/18 05:20:35;;;;;;;16.60;11.33;;;;;;;;;;5035665;28;20840;-72
2021/08/18 05:23:01;;;;;;;14.57;11.33;;;;;;;;;;5035875;28;20432;-72
2021/08/18 05:25:27;;;;;;;17.47;11.50;;;;;;;;;;5035434;28;20445;-70
2021/08/18 05:27:53;;;;;;;14.77;10.63;;;;;;;;;;5035055;28;20436;-70
2021/08/18 05:30:19;;;;;;;17.10;11.30;;;;;;;;;;5035827;28;20435;-72
2021/08/18 05:32:46;;;;;;;15.27;11.70;;;;;;;;;;5035308;28;20421;-71
2021/08/18 05:35:13;;;;;;;13.33;11.40;;;;;;;;;;5035662;28;20843;-71
2021/08/18 05:37:39;;;;;;;20.83;11.63;;;;;;;;;;5035028;28;20455;-71
2021/08/18 05:40:06;;;;;;;15.87;10.90;;;;;;;;;;5032105;28;20937;-70
2021/08/18 05:42:32;;;;;;;14.57;10.70;;;;;;;;;;5035273;28;20818;-71
2021/08/18 05:44:58;;;;;;;16.03;12.80;;;;;;;;;;5034822;28;20483;-71
2021/08/18 05:47:24;;;;;;;16.90;11.17;;;;;;;;;;5034386;28;20482;-71
2021/08/18 05:49:52;;;;;;;14.80;10.60;;;;;;;;;;5033199;28;20421;-71
2021/08/18 05:52:18;;;;;;;12.80;10.67;;;;;;;;;;5036228;28;21007;-70
2021/08/18 05:54:44;;;;;;;13.53;10.27;;;;;;;;;;5035050;28;20515;-72
2021/08/18 05:57:10;;;;;;;13.23;10.53;;;;;;;;;;5034397;28;20420;-71
2021/08/18 05:59:36;;;;;;;13.70;10.67;;;;;;;;;;5046774;28;20413;-70
2021/08/18 06:02:02;;;;;;;13.53;10.27;;;;;;;;;;5054599;28;20423;-71
2021/08/18 06:04:28;;;;;;;12.10;9.43;;;;;;;;;;5034772;28;20417;-70
2021/08/18 06:06:54;;;;;;;11.57;9.17;;;;;;;;;;5034494;28;20524;-71
2021/08/18 06:09:21;;;;;;;14.17;9.37;;;;;;;;;;5034762;28;20456;-71
2021/08/18 06:11:47;;;;;;;10.20;9.20;;;;;;;;;;5037735;28;20431;-71
2021/08/18 06:14:13;;;;;;;9.80;8.30;;;;;;;;;;5036591;28;20409;-71
2021/08/18 06:16:39;;;;;;;10.97;8.10;;;;;;;;;;5048492;28;20461;-72
2021/08/18 06:19:05;;;;;;;9.33;7.83;;;;;;;;;;5046087;28;20960;-72
2021/08/18 06:21:31;;;;;;;8.67;7.50;;;;;;;;;;5054838;28;20448;-72
2021/08/18 06:24:05;;;;;;;10.20;7.97;;;;;;;;;;5054692;28;20413;-72
2021/08/18 06:26:31;;;;;;;8.73;7.83;;;;;;;;;;5054486;28;20477;-72
2021/08/18 06:28:57;;;;;;;7.30;6.33;;;;;;;;;;5048060;28;20425;-72
2021/08/18 06:31:23;;;;;;;7.73;6.20;;;;;;;;;;5034455;28;20888;-71
2021/08/18 06:33:49;;;;;;;7.30;6.60;;;;;;;;;;5034422;28;20449;-71
2021/08/18 06:36:15;;;;;;;6.90;5.80;;;;;;;;;;5034258;28;20485;-71
2021/08/18 06:38:41;;;;;;;6.97;6.27;;;;;;;;;;5034008;28;20467;-72
2021/08/18 06:41:07;;;;;;;7.37;5.90;;;;;;;;;;5034286;28;20413;-71
2021/08/18 06:43:33;;;;;;;6.00;5.30;;;;;;;;;;5034371;28;20921;-73
2021/08/18 06:45:59;;;;;;;6.77;6.10;;;;;;;;;;5033871;28;20446;-71
2021/08/18 06:48:25;;;;;;;7.70;5.30;;;;;;;;;;5022667;28;20418;-71
2021/08/18 06:50:51;;;;;;;7.77;5.07;;;;;;;;;;5027425;28;20440;-70
2021/08/18 06:53:17;;;;;;;6.30;5.07;;;;;;;;;;5029533;28;20923;-71
2021/08/18 06:55:44;;;;;;;7.47;4.80;;;;;;;;;;5030486;28;20447;-71
2021/08/18 06:58:10;;;;;;;5.30;4.80;;;;;;;;;;5041114;28;20463;-72
2021/08/18 07:00:36;;;;;;;5.80;5.30;;;;;;;;;;5024081;28;20434;-71
2021/08/18 07:03:02;;;;;;;5.70;5.20;;;;;;;;;;5034569;28;20430;-70
2021/08/18 07:05:32;;;;;;;5.63;5.00;;;;;;;;;;5039277;28;20457;-72
2021/08/18 07:07:58;;;;;;;6.40;5.50;;;;;;;;;;5031415;28;20504;-71
2021/08/18 07:10:24;;;;;;;6.47;5.47;;;;;;;;;;5029926;28;20809;-72
2021/08/18 07:12:50;;;;;;;8.20;5.83;;;;;;;;;;5024737;28;20457;-72
2021/08/18 07:15:16;;;;;;;7.93;5.53;;;;;;;;;;5030115;28;20472;-72
2021/08/18 07:17:42;;;;;;;7.00;4.93;;;;;;;;;;5029509;28;20970;-72
2021/08/18 07:20:09;;;;;;;6.40;5.80;;;;;;;;;;5029856;28;20426;-73
2021/08/18 07:22:35;;;;;;;8.67;5.10;;;;;;;;;;5029870;28;20455;-71
2021/08/18 07:25:01;;;;;;;8.20;5.30;;;;;;;;;;5023437;28;20449;-71
2021/08/18 07:27:27;;;;;;;8.80;5.43;;;;;;;;;;5027402;28;20424;-70
2021/08/18 07:29:54;;;;;;;8.67;5.20;;;;;;;;;;5035834;28;20467;-71
2021/08/18 07:32:20;;;;;;;10.23;4.60;;;;;;;;;;5022648;28;20529;-71
2021/08/18 07:34:46;;;;;;;6.23;5.63;;;;;;;;;;5029538;28;20871;-70
2021/08/18 07:37:12;;;;;;;5.47;4.97;;;;;;;;;;5029349;28;21009;-71
2021/08/18 07:39:38;;;;;;;5.07;4.37;;;;;;;;;;5029713;28;20424;-71
2021/08/18 07:42:04;;;;;;;4.87;4.47;;;;;;;;;;5029711;28;20461;-71
2021/08/18 07:44:31;;;;;;;5.37;4.87;;;;;;;;;;5031595;28;20475;-70
2021/08/18 07:46:57;;;;;;;6.07;4.70;;;;;;;;;;5029165;28;20474;-70
2021/08/18 07:49:23;;;;;;;5.70;5.10;;;;;;;;;;5029542;28;20523;-70
2021/08/18 07:51:49;;;;;;;7.67;5.00;;;;;;;;;;5036228;28;20422;-70
2021/08/18 07:54:15;;;;;;;7.43;5.43;;;;;;;;;;5028864;28;20488;-72
2021/08/18 07:56:41;;;;;;;9.23;6.20;;;;;;;;;;5037842;28;20515;-70
2021/08/18 07:59:07;;;;;;;8.00;5.60;;;;;;;;;;5031877;28;20975;-70
2021/08/18 08:01:33;;;;;;;6.37;5.57;;;;;;;;;;5048907;28;20403;-70
2021/08/18 08:03:59;;;;;;;5.83;5.23;;;;;;;;;;5028932;28;20489;-69
2021/08/18 08:06:25;;;;;;;5.60;4.70;;;;;;;;;;5049058;28;20943;-69
2021/08/18 08:08:51;;;;;;;6.90;5.43;;;;;;;;;;5037733;28;20505;-71
2021/08/18 08:11:18;;;;;;;7.50;4.87;;;;;;;;;;5041861;28;20426;-71
2021/08/18 08:13:44;;;;;;;7.43;4.47;;;;;;;;;;5029226;28;20426;-70
2021/08/18 08:16:10;;;;;;;5.27;4.07;;;;;;;;;;5028983;28;20439;-70
2021/08/18 08:18:36;;;;;;;4.80;3.97;;;;;;;;;;5028981;28;20512;-70
2021/08/18 08:21:02;;;;;;;6.37;4.27;;;;;;;;;;5029260;28;20511;-70
2021/08/18 08:23:28;;;;;;;4.67;4.27;;;;;;;;;;5029155;28;20451;-71
2021/08/18 08:25:54;;;;;;;6.60;4.40;;;;;;;;;;5028760;28;20491;-72
2021/08/18 08:28:20;;;;;;;4.30;3.33;;;;;;;;;;5028628;28;20435;-72
2021/08/18 08:30:49;;;;;;;5.07;3.80;;;;;;;;;;5028382;28;20435;-71
2021/08/18 08:33:15;;;;;;;4.50;3.70;;;;;;;;;;5027712;28;20465;-72
2021/08/18 08:35:41;;;;;;;4.00;3.63;;;;;;;;;;5048985;28;20437;-71
2021/08/18 08:38:07;;;;;;;5.23;3.37;;;;;;;;;;5043011;28;20506;-70
2021/08/18 08:40:33;;;;;;;4.60;3.23;;;;;;;;;;5029213;28;20849;-72
2021/08/18 08:43:00;;;;;;;3.73;3.30;;;;;;;;;;5028683;28;20436;-70
2021/08/18 08:45:26;;;;;;;7.13;4.10;;;;;;;;;;5028947;28;20447;-70
2021/08/18 08:47:53;;;;;;;4.73;3.37;;;;;;;;;;5028408;28;20423;-70
2021/08/18 08:50:19;;;;;;;4.27;3.97;;;;;;;;;;5029214;28;20500;-71
2021/08/18 08:52:45;;;;;;;5.63;3.87;;;;;;;;;;5028646;28;21166;-70
2021/08/18 08:55:11;;;;;;;6.50;4.57;;;;;;;;;;5023276;28;20444;-70
2021/08/18 08:57:47;;;;;;;5.33;4.20;;;;;;;;;;5028643;28;20551;-71
2021/08/18 09:00:14;;;;;;;4.40;4.00;;;;;;;;;;5028722;28;20479;-71
2021/08/18 09:02:40;;;;;;;6.80;4.50;;;;;;;;;;5028834;28;20446;-70
2021/08/18 09:05:06;;;;;;;8.80;4.77;;;;;;;;;;5035864;28;20457;-71
2021/08/18 09:07:32;;;;;;;6.27;4.30;;;;;;;;;;5048335;28;20417;-71
2021/08/18 09:10:00;;;;;;;4.33;3.93;;;;;;;;;;5041755;28;20507;-70
2021/08/18 09:12:37;;;;;;;6.13;4.40;;;;;;;;;;5031180;28;20431;-73
2021/08/18 09:15:16;;;;;;;11.83;4.83;;;;;;;;;;5028410;28;20997;-72
2021/08/18 09:17:42;;;;;;;9.03;4.43;;;;;;;;;;5031154;28;20470;-71
2021/08/18 09:20:08;;;;;;;4.53;4.13;;;;;;;;;;5022381;28;20439;-71
2021/08/18 09:22:37;;;;;;;5.97;4.83;;;;;;;;;;5045557;28;20917;-72
2021/08/18 09:25:20;;;;;;;6.93;5.03;;;;;;;;;;5040021;28;20439;-70
2021/08/18 09:27:51;;;;;;;5.37;4.30;;;;;;;;;;5044172;28;20433;-71
2021/08/18 09:30:18;;;;;;;8.47;4.90;;;;;;;;;;5029255;28;20845;-72
2021/08/18 09:32:44;;;;;;;7.70;4.77;;;;;;;;;;5024083;28;20444;-72
2021/08/18 09:35:12;;;;;;;6.50;4.80;;;;;;;;;;5047472;28;20463;-71
2021/08/18 09:37:38;;;;;;;6.63;4.70;;;;;;;;;;5048519;28;20542;-71
2021/08/18 09:40:16;;;;;;;10.40;5.40;;;;;;;;;;5041391;28;20424;-70
2021/08/18 09:42:42;;;;;;;5.23;4.73;;;;;;;;;;5028927;28;20515;-71
2021/08/18 09:45:09;;;;;;;8.10;4.73;;;;;;;;;;5031726;28;20440;-73
2021/08/18 09:47:35;;;;;;;8.03;4.80;;;;;;;;;;5031394;28;20831;-72
2021/08/18 09:50:01;;;;;;;6.97;4.60;;;;;;;;;;5031621;28;20447;-71
2021/08/18 09:52:27;;;;;;;6.00;4.80;;;;;;;;;;5038984;28;20542;-72
2021/08/18 09:54:53;;;;;;;6.17;4.80;;;;;;;;;;5027837;28;20535;-71
2021/08/18 09:57:29;;;;;;;6.30;4.47;;;;;;;;;;5030509;28;20413;-71
2021/08/18 09:59:56;;;;;;;5.43;4.40;;;;;;;;;;5031588;28;20416;-72
2021/08/18 10:02:22;;;;;;;7.33;4.03;;;;;;;;;;5030739;28;20480;-71
2021/08/18 10:04:48;;;;;;;7.00;4.13;;;;;;;;;;5027915;28;21224;-72
2021/08/18 10:07:16;;;;;;;6.63;4.47;;;;;;;;;;5034089;28;20483;-72
2021/08/18 10:09:42;;;;;;;6.83;4.67;;;;;;;;;;5031226;28;20468;-71
2021/08/18 10:12:09;;;;;;;4.93;4.43;;;;;;;;;;5035366;28;20411;-72
2021/08/18 10:14:35;;;;;;;5.27;4.10;;;;;;;;;;5044059;28;20436;-71
2021/08/18 10:17:01;;;;;;;5.60;4.50;;;;;;;;;;5046407;28;20840;-72
2021/08/18 10:19:27;;;;;;;7.07;4.73;;;;;;;;;;5027045;28;20556;-71
2021/08/18 10:21:59;;;;;;;5.90;4.53;;;;;;;;;;5046210;28;20480;-71
2021/08/18 10:24:38;;;;;;;5.70;4.53;;;;;;;;;;5045179;28;20868;-72
2021/08/18 10:27:05;;;;;;;6.70;4.70;;;;;;;;;;5050672;28;20407;-71
2021/08/18 10:29:32;;;;;;;5.20;4.70;;;;;;;;;;5037634;28;20442;-72
2021/08/18 10:32:00;;;;;;;6.00;4.60;;;;;;;;;;5031097;28;20500;-72
2021/08/18 10:34:45;;;;;;;7.37;5.03;;;;;;;;;;5030477;28;20515;-72
2021/08/18 10:37:25;;;;;;;4.33;3.73;;;;;;;;;;5030641;28;20909;-72
2021/08/18 10:39:52;;;;;;;5.27;4.53;;;;;;;;;;5033069;28;21084;-71
2021/08/18 10:42:18;;;;;;;9.07;4.37;;;;;;;;;;5043529;28;20422;-71
2021/08/18 10:44:50;;;;;;;5.40;4.70;;;;;;;;;;5043260;28;20433;-72
2021/08/18 10:47:18;;;;;;;4.70;4.20;;;;;;;;;;5030272;28;20417;-71
2021/08/18 10:49:44;;;;;;;6.10;5.37;;;;;;;;;;5030412;28;20438;-70
2021/08/18 10:52:11;;;;;;;7.67;4.20;;;;;;;;;;5030548;28;20418;-70
2021/08/18 10:54:44;;;;;;;5.50;4.40;;;;;;;;;;5016160;28;20563;-71
2021/08/18 10:57:35;;;;;;;4.90;3.97;;;;;;;;;;5014486;28;20430;-71
2021/08/18 11:00:17;;;;;;;6.37;4.10;;;;;;;;;;5021711;28;20488;-71
2021/08/18 11:02:48;;;;;;;5.53;3.87;;;;;;;;;;5025623;28;20489;-71
2021/08/18 11:05:14;;;;;;;6.10;4.40;;;;;;;;;;5023704;28;20478;-71
2021/08/18 11:07:59;;;;;;;5.60;4.80;;;;;;;;;;5027868;28;20952;-71
2021/08/18 11:10:25;;;;;;;6.30;5.00;;;;;;;;;;5024712;28;20425;-72
2021/08/18 11:12:57;;;;;;;7.50;4.40;;;;;;;;;;5026892;28;20519;-73
2021/08/18 11:15:26;;;;;;;6.63;4.30;;;;;;;;;;5027854;28;20555;-72
2021/08/18 11:17:57;;;;;;;6.90;5.23;;;;;;;;;;5029665;28;20471;-72
2021/08/18 11:20:24;;;;;;;11.03;4.77;;;;;;;;;;5027240;28;20490;-72
2021/08/18 11:22:54;;;;;;;7.07;5.40;;;;;;;;;;5023403;28;20428;-72
2021/08/18 11:25:20;;;;;;;6.73;4.87;;;;;;;;;;5029980;28;20455;-73
2021/08/18 11:27:50;;;;;;;8.70;5.10;;;;;;;;;;5039919;28;20531;-72
2021/08/18 11:30:17;;;;;;;6.20;4.53;;;;;;;;;;5019152;28;20471;-72
2021/08/18 11:32:43;;;;;;;6.80;4.70;;;;;;;;;;5023053;28;20425;-72
2021/08/18 11:35:09;;;;;;;5.40;4.57;;;;;;;;;;5028946;28;20889;-73
2021/08/18 11:37:35;;;;;;;7.17;4.87;;;;;;;;;;5029445;28;20416;-71
2021/08/18 11:40:02;;;;;;;9.17;5.37;;;;;;;;;;5029124;28;20482;-72
2021/08/18 11:42:28;;;;;;;5.60;4.60;;;;;;;;;;5029615;28;20470;-71
2021/08/18 11:45:02;;;;;;;6.80;4.97;;;;;;;;;;5030943;28;20447;-72
2021/08/18 11:47:29;;;;;;;7.40;5.60;;;;;;;;;;5021964;28;20424;-72
2021/08/18 11:49:55;;;;;;;5.70;4.57;;;;;;;;;;5021976;28;20925;-72
2021/08/18 11:52:22;;;;;;;6.00;4.67;;;;;;;;;;5025235;28;20572;-72
2021/08/18 11:54:52;;;;;;;6.37;4.83;;;;;;;;;;5028886;28;20561;-72
2021/08/18 11:57:19;;;;;;;5.23;4.73;;;;;;;;;;5042371;28;20415;-73
2021/08/18 11:59:49;;;;;;;4.43;3.90;;;;;;;;;;5029489;28;20472;-72
2021/08/18 12:02:15;;;;;;;5.33;4.83;;;;;;;;;;5031365;28;20416;-70
2021/08/18 12:04:42;;;;;;;4.57;4.00;;;;;;;;;;5049176;28;20442;-71
2021/08/18 12:07:15;;;;;;;5.00;4.13;;;;;;;;;;5048965;28;20868;-72
2021/08/18 12:09:45;;;;;;;4.37;3.97;;;;;;;;;;5035070;28;20956;-74
2021/08/18 12:12:12;;;;;;;7.03;4.10;;;;;;;;;;5029674;28;20409;-73
2021/08/18 12:14:39;;;;;;;4.80;3.73;;;;;;;;;;5029398;28;20448;-71
2021/08/18 12:17:05;;;;;;;5.00;4.03;;;;;;;;;;5029204;28;20447;-72
2021/08/18 12:19:35;;;;;;;4.10;3.63;;;;;;;;;;5029476;28;20456;-72
2021/08/18 12:22:07;;;;;;;5.27;4.00;;;;;;;;;;5033623;28;20435;-73
2021/08/18 12:24:35;;;;;;;12.10;4.93;;;;;;;;;;5049435;28;20419;-73
2021/08/18 12:27:07;;;;;;;5.30;4.27;;;;;;;;;;5049054;28;20419;-73
2021/08/18 12:29:34;;;;;;;5.63;4.37;;;;;;;;;;5038232;28;20430;-72
2021/08/18 12:32:11;;;;;;;5.00;4.07;;;;;;;;;;5028329;28;21243;-73
2021/08/18 12:34:44;;;;;;;5.07;4.23;;;;;;;;;;5023625;28;20416;-73
2021/08/18 12:37:21;;;;;;;8.23;5.00;;;;;;;;;;5028291;28;20598;-73
2021/08/18 12:39:53;;;;;;;5.73;4.13;;;;;;;;;;5029054;28;20472;-73
2021/08/18 12:42:22;;;;;;;4.47;4.00;;;;;;;;;;5033692;28;20423;-73
2021/08/18 12:44:57;;;;;;;6.40;4.23;;;;;;;;;;5024135;28;20785;-72
2021/08/18 12:47:29;;;;;;;5.00;4.50;;;;;;;;;;5048728;28;20419;-73
2021/08/18 12:49:55;;;;;;;4.60;4.03;;;;;;;;;;5036160;28;20517;-72
2021/08/18 12:52:21;;;;;;;7.07;4.10;;;;;;;;;;5044050;28;21046;-72
2021/08/18 12:54:47;;;;;;;7.43;4.10;;;;;;;;;;5032549;28;20550;-72
2021/08/18 12:57:13;;;;;;;5.77;3.80;;;;;;;;;;5031218;28;20429;-72
2021/08/18 12:59:40;;;;;;;4.80;4.10;;;;;;;;;;5032561;28;20927;-73
2021/08/18 13:02:06;;;;;;;7.30;3.90;;;;;;;;;;5032629;28;20525;-72
2021/08/18 13:04:32;;;;;;;6.47;4.03;;;;;;;;;;5032660;28;20770;-72
2021/08/18 13:06:58;;;;;;;4.17;3.60;;;;;;;;;;5030642;28;20444;-73
2021/08/18 13:09:25;;;;;;;3.50;3.20;;;;;;;;;;5032722;28;20506;-73
2021/08/18 13:11:51;;;;;;;4.30;3.90;;;;;;;;;;5041735;28;20476;-73
2021/08/18 13:14:18;;;;;;;6.07;4.47;;;;;;;;;;5052526;28;20418;-72
2021/08/18 13:16:44;;;;;;;4.73;3.83;;;;;;;;;;5042053;28;20760;-72
2021/08/18 13:19:10;;;;;;;4.43;4.03;;;;;;;;;;5032376;28;20474;-72
2021/08/18 13:21:37;;;;;;;4.13;3.73;;;;;;;;;;5031576;28;20428;-72
2021/08/18 13:24:03;;;;;;;6.20;4.30;;;;;;;;;;5030077;28;20431;-72
2021/08/18 13:26:29;;;;;;;6.43;4.30;;;;;;;;;;5032034;28;20447;-72
2021/08/18 13:28:56;;;;;;;5.73;4.33;;;;;;;;;;5032608;28;20448;-73
2021/08/18 13:31:22;;;;;;;4.27;3.87;;;;;;;;;;5031978;28;20425;-73
2021/08/18 13:33:48;;;;;;;4.53;3.97;;;;;;;;;;5023950;28;20438;-73
2021/08/18 13:36:14;;;;;;;4.47;4.03;;;;;;;;;;5030383;28;20463;-73
2021/08/18 13:38:40;;;;;;;4.87;4.20;;;;;;;;;;5031629;28;20456;-73
2021/08/18 13:41:07;;;;;;;5.13;4.13;;;;;;;;;;5024362;28;20422;-73
2021/08/18 13:43:33;;;;;;;5.30;4.80;;;;;;;;;;5032068;28;20492;-73
2021/08/18 13:45:59;;;;;;;6.17;3.97;;;;;;;;;;5031576;28;20453;-73
2021/08/18 13:48:25;;;;;;;5.90;4.40;;;;;;;;;;5031546;28;20423;-73
2021/08/18 13:50:51;;;;;;;5.43;4.97;;;;;;;;;;5031516;28;20432;-73
2021/08/18 13:53:17;;;;;;;4.20;3.80;;;;;;;;;;5031676;28;20436;-73
2021/08/18 13:55:44;;;;;;;5.63;4.20;;;;;;;;;;5031158;28;21024;-74
2021/08/18 13:58:11;;;;;;;3.83;3.53;;;;;;;;;;5031303;28;20472;-73
2021/08/18 14:00:37;;;;;;;5.53;4.07;;;;;;;;;;5031047;28;20587;-73
2021/08/18 14:03:03;;;;;;;4.67;4.00;;;;;;;;;;5030831;28;20519;-73
2021/08/18 14:05:29;;;;;;;4.10;3.73;;;;;;;;;;5031155;28;20933;-74
2021/08/18 14:07:56;;;;;;;4.30;3.57;;;;;;;;;;5030894;28;20519;-73
2021/08/18 14:10:27;;;;;;;5.63;4.30;;;;;;;;;;5030618;28;20521;-73
2021/08/18 14:12:53;;;;;;;5.00;3.60;;;;;;;;;;5041334;28;20449;-72
2021/08/18 14:15:20;;;;;;;4.83;3.90;;;;;;;;;;5031364;28;20441;-73
2021/08/18 14:17:46;;;;;;;4.60;4.10;;;;;;;;;;5030649;28;20425;-72
2021/08/18 14:20:12;;;;;;;4.23;3.83;;;;;;;;;;5031325;28;20407;-73
2021/08/18 14:22:38;;;;;;;4.77;4.33;;;;;;;;;;5031052;28;20408;-72
2021/08/18 14:25:05;;;;;;;4.53;3.93;;;;;;;;;;5030891;28;20521;-74
2021/08/18 14:27:31;;;;;;;4.50;4.10;;;;;;;;;;5030491;28;20425;-73
2021/08/18 14:29:57;;;;;;;4.43;3.50;;;;;;;;;;5031273;28;20400;-74
2021/08/18 14:32:23;;;;;;;4.57;4.13;;;;;;;;;;5030710;28;20425;-73